createdAt,value
2019-02-27T00:00:22.688Z,4.66
2019-02-27T00:01:22.680Z,4.66
2019-02-27T00:02:23.351Z,4.57
2019-02-27T00:03:22.654Z,4.63
2019-02-27T00:04:22.636Z,4.60
2019-02-27T00:05:22.650Z,4.60
2019-02-27T00:06:22.700Z,4.59
2019-02-27T00:07:22.614Z,4.54
2019-02-27T00:08:26.571Z,4.54
2019-02-27T00:09:22.579Z,4.49
2019-02-27T00:10:22.571Z,4.49
2019-02-27T00:11:22.796Z,4.39
2019-02-27T00:12:22.592Z,4.42
2019-02-27T00:13:24.835Z,4.42
2019-02-27T00:14:22.573Z,4.38
2019-02-27T00:15:22.523Z,4.36
2019-02-27T00:16:22.530Z,4.30
2019-02-27T00:17:22.529Z,4.38
2019-02-27T00:18:23.963Z,4.38
2019-02-27T00:19:22.491Z,4.35
2019-02-27T00:20:22.469Z,4.28
2019-02-27T00:21:22.455Z,4.38
2019-02-27T00:22:22.436Z,4.34
2019-02-27T00:23:24.143Z,4.35
2019-02-27T00:24:22.414Z,4.34
2019-02-27T00:25:22.401Z,4.27
2019-02-27T00:26:22.401Z,4.35
2019-02-27T00:27:22.383Z,4.23
2019-02-27T00:28:23.437Z,4.20
2019-02-27T00:29:22.557Z,4.24
2019-02-27T00:30:22.345Z,4.23
2019-02-27T00:31:22.330Z,4.20
2019-02-27T00:32:22.326Z,4.23
2019-02-27T00:33:25.056Z,4.21
2019-02-27T00:34:22.304Z,4.26
2019-02-27T00:35:22.359Z,4.20
2019-02-27T00:36:22.283Z,4.27
2019-02-27T00:37:22.276Z,4.30
2019-02-27T00:38:22.767Z,4.35
2019-02-27T00:39:22.318Z,4.36
2019-02-27T00:40:22.234Z,4.30
2019-02-27T00:41:22.314Z,4.36
2019-02-27T00:42:23.056Z,4.30
2019-02-27T00:43:22.206Z,4.43
2019-02-27T00:44:22.200Z,4.41
2019-02-27T00:45:22.183Z,4.49
2019-02-27T00:46:22.169Z,4.46
2019-02-27T00:47:22.212Z,4.53
2019-02-27T00:48:26.015Z,4.57
2019-02-27T00:49:22.155Z,4.42
2019-02-27T00:50:22.145Z,4.38
2019-02-27T00:51:22.118Z,4.46
2019-02-27T00:52:22.102Z,4.57
2019-02-27T00:53:24.574Z,4.53
2019-02-27T00:54:22.088Z,4.54
2019-02-27T00:55:22.070Z,4.48
2019-02-27T00:56:22.072Z,4.54
2019-02-27T00:57:22.049Z,4.54
2019-02-27T00:58:22.047Z,4.48
2019-02-27T00:59:22.092Z,4.57
2019-02-27T01:00:22.022Z,4.54
2019-02-27T01:01:22.008Z,4.43
2019-02-27T01:02:22.006Z,4.42
2019-02-27T01:03:25.922Z,4.42
2019-02-27T01:04:21.980Z,4.35
2019-02-27T01:05:22.023Z,4.26
2019-02-27T01:06:21.952Z,4.27
2019-02-27T01:07:21.963Z,4.05
2019-02-27T01:08:21.929Z,4.08
2019-02-27T01:09:21.987Z,4.06
2019-02-27T01:10:21.903Z,4.09
2019-02-27T01:11:21.949Z,3.96
2019-02-27T01:12:22.974Z,3.92
2019-02-27T01:13:21.867Z,3.91
2019-02-27T01:14:21.876Z,3.82
2019-02-27T01:15:21.846Z,3.78
2019-02-27T01:16:21.886Z,3.81
2019-02-27T01:17:23.873Z,3.78
2019-02-27T01:18:21.823Z,3.72
2019-02-27T01:19:21.809Z,3.78
2019-02-27T01:20:21.794Z,3.78
2019-02-27T01:21:21.815Z,3.64
2019-02-27T01:22:21.780Z,3.70
2019-02-27T01:23:21.813Z,3.63
2019-02-27T01:24:21.789Z,3.67
2019-02-27T01:25:23.137Z,3.67
2019-02-27T01:26:21.731Z,3.66
2019-02-27T01:27:21.738Z,3.70
2019-02-27T01:28:21.742Z,3.55
2019-02-27T01:29:21.752Z,3.56
2019-02-27T01:30:23.991Z,3.56
2019-02-27T01:31:21.972Z,3.70
2019-02-27T01:32:21.681Z,3.52
2019-02-27T01:33:21.693Z,3.49
2019-02-27T01:34:21.680Z,3.49
2019-02-27T01:35:21.663Z,3.67
2019-02-27T01:36:24.235Z,3.62
2019-02-27T01:37:21.611Z,3.67
2019-02-27T01:38:21.663Z,3.51
2019-02-27T01:39:21.628Z,3.59
2019-02-27T01:40:21.618Z,3.66
2019-02-27T01:41:24.436Z,3.64
2019-02-27T01:42:21.670Z,3.55
2019-02-27T01:43:21.551Z,3.60
2019-02-27T01:44:21.547Z,3.60
2019-02-27T01:45:21.769Z,3.59
2019-02-27T01:46:21.514Z,3.60
2019-02-27T01:47:21.537Z,3.59
2019-02-27T01:48:21.511Z,3.54
2019-02-27T01:49:21.496Z,3.54
2019-02-27T01:50:22.698Z,3.48
2019-02-27T01:51:21.474Z,3.52
2019-02-27T01:52:21.447Z,3.55
2019-02-27T01:53:21.521Z,3.54
2019-02-27T01:54:21.427Z,3.49
2019-02-27T01:55:22.390Z,3.41
2019-02-27T01:56:21.451Z,3.36
2019-02-27T01:57:21.402Z,3.42
2019-02-27T01:58:21.386Z,3.35
2019-02-27T01:59:21.434Z,3.37
2019-02-27T02:00:23.271Z,3.27
2019-02-27T02:01:21.381Z,3.27
2019-02-27T02:02:21.394Z,3.23
2019-02-27T02:03:21.336Z,3.26
2019-02-27T02:04:21.337Z,3.25
2019-02-27T02:05:26.069Z,3.26
2019-02-27T02:06:22.309Z,3.20
2019-02-27T02:07:21.337Z,3.22
2019-02-27T02:08:21.275Z,3.22
2019-02-27T02:09:21.679Z,3.27
2019-02-27T02:10:21.254Z,3.20
2019-02-27T02:11:21.302Z,3.17
2019-02-27T02:12:21.234Z,3.18
2019-02-27T02:13:21.258Z,3.11
2019-02-27T02:14:21.655Z,3.07
2019-02-27T02:15:21.204Z,3.17
2019-02-27T02:16:21.205Z,3.09
2019-02-27T02:17:21.236Z,3.09
2019-02-27T02:18:21.173Z,3.11
2019-02-27T02:19:21.447Z,3.15
2019-02-27T02:20:21.143Z,3.12
2019-02-27T02:21:21.146Z,3.08
2019-02-27T02:22:21.198Z,3.17
2019-02-27T02:23:21.172Z,3.20
2019-02-27T02:24:21.669Z,3.15
2019-02-27T02:25:21.133Z,3.22
2019-02-27T02:26:21.098Z,3.17
2019-02-27T02:27:21.079Z,3.25
2019-02-27T02:28:21.056Z,3.25
2019-02-27T02:29:21.132Z,3.17
2019-02-27T02:30:21.048Z,3.26
2019-02-27T02:31:21.056Z,3.15
2019-02-27T02:32:21.010Z,3.17
2019-02-27T02:33:21.004Z,3.18
2019-02-27T02:34:21.084Z,3.18
2019-02-27T02:35:21.041Z,3.20
2019-02-27T02:36:25.126Z,3.22
2019-02-27T02:37:22.026Z,3.26
2019-02-27T02:38:20.964Z,3.29
2019-02-27T02:39:20.965Z,3.22
2019-02-27T02:40:20.992Z,3.12
2019-02-27T02:41:20.958Z,3.25
2019-02-27T02:42:24.244Z,3.25
2019-02-27T02:43:20.900Z,3.23
2019-02-27T02:44:21.961Z,3.15
2019-02-27T02:45:20.906Z,3.20
2019-02-27T02:46:20.903Z,3.23
2019-02-27T02:47:21.498Z,3.27
2019-02-27T02:48:20.876Z,3.27
2019-02-27T02:49:20.851Z,3.32
2019-02-27T02:50:20.861Z,3.36
2019-02-27T02:51:20.806Z,3.30
2019-02-27T02:52:20.810Z,3.23
2019-02-27T02:53:24.990Z,3.35
2019-02-27T02:54:20.771Z,3.37
2019-02-27T02:55:20.801Z,3.41
2019-02-27T02:56:23.755Z,3.41
2019-02-27T02:57:20.749Z,3.32
2019-02-27T02:58:20.735Z,3.37
2019-02-27T02:59:24.514Z,3.36
2019-02-27T03:00:20.715Z,3.36
2019-02-27T03:01:20.728Z,3.41
2019-02-27T03:02:23.485Z,3.37
2019-02-27T03:03:20.710Z,3.35
2019-02-27T03:04:20.677Z,3.23
2019-02-27T03:05:23.619Z,3.23
2019-02-27T03:06:20.650Z,3.22
2019-02-27T03:07:20.647Z,3.18
2019-02-27T03:08:21.091Z,3.18
2019-02-27T03:09:20.611Z,3.14
2019-02-27T03:10:20.609Z,3.11
2019-02-27T03:11:20.627Z,3.05
2019-02-27T03:12:20.576Z,3.05
2019-02-27T03:13:20.631Z,3.04
2019-02-27T03:14:20.584Z,3.02
2019-02-27T03:15:20.552Z,2.96
2019-02-27T03:16:20.570Z,2.81
2019-02-27T03:17:20.577Z,2.86
2019-02-27T03:18:20.527Z,2.86
2019-02-27T03:19:20.504Z,2.78
2019-02-27T03:20:20.495Z,2.79
2019-02-27T03:21:20.500Z,2.76
2019-02-27T03:22:20.504Z,2.71
2019-02-27T03:23:20.511Z,2.75
2019-02-27T03:24:20.466Z,2.79
2019-02-27T03:25:20.440Z,2.73
2019-02-27T03:26:20.431Z,2.73
2019-02-27T03:27:20.422Z,2.78
2019-02-27T03:28:20.426Z,2.72
2019-02-27T03:29:20.439Z,2.68
2019-02-27T03:30:20.389Z,2.58
2019-02-27T03:31:20.421Z,2.58
2019-02-27T03:32:20.368Z,2.58
2019-02-27T03:33:24.485Z,2.65
2019-02-27T03:34:21.401Z,2.69
2019-02-27T03:35:27.567Z,2.54
2019-02-27T03:36:21.318Z,2.65
2019-02-27T03:37:20.345Z,2.58
2019-02-27T03:38:23.774Z,2.57
2019-02-27T03:39:20.287Z,2.55
2019-02-27T03:40:20.369Z,2.53
2019-02-27T03:41:22.821Z,2.57
2019-02-27T03:42:20.269Z,2.50
2019-02-27T03:43:20.260Z,2.50
2019-02-27T03:44:21.545Z,2.53
2019-02-27T03:45:20.251Z,2.48
2019-02-27T03:46:20.259Z,2.48
2019-02-27T03:47:20.201Z,2.50
2019-02-27T03:48:20.193Z,2.48
2019-02-27T03:49:20.180Z,2.45
2019-02-27T03:50:20.188Z,2.51
2019-02-27T03:51:24.306Z,2.53
2019-02-27T03:52:21.234Z,2.50
2019-02-27T03:53:20.141Z,2.54
2019-02-27T03:54:21.207Z,2.57
2019-02-27T03:55:20.129Z,2.53
2019-02-27T03:56:20.118Z,2.55
2019-02-27T03:57:20.439Z,2.57
2019-02-27T03:58:20.171Z,2.53
2019-02-27T03:59:20.080Z,2.54
2019-02-27T04:00:20.061Z,2.55
2019-02-27T04:01:20.052Z,2.48
2019-02-27T04:02:20.043Z,2.50
2019-02-27T04:03:20.079Z,2.57
2019-02-27T04:04:20.125Z,2.53
2019-02-27T04:05:20.025Z,2.60
2019-02-27T04:06:21.442Z,2.55
2019-02-27T04:07:19.988Z,2.68
2019-02-27T04:08:19.984Z,2.61
2019-02-27T04:09:20.241Z,2.68
2019-02-27T04:10:20.049Z,2.58
2019-02-27T04:11:19.955Z,2.55
2019-02-27T04:12:19.934Z,2.55
2019-02-27T04:13:19.921Z,2.53
2019-02-27T04:14:19.909Z,2.58
2019-02-27T04:15:19.901Z,2.53
2019-02-27T04:16:20.111Z,2.47
2019-02-27T04:17:19.912Z,2.55
2019-02-27T04:18:19.862Z,2.51
2019-02-27T04:19:19.859Z,2.37
2019-02-27T04:20:19.857Z,2.42
2019-02-27T04:21:25.041Z,2.36
2019-02-27T04:22:20.861Z,2.47
2019-02-27T04:23:19.914Z,2.42
2019-02-27T04:24:22.422Z,2.43
2019-02-27T04:25:19.831Z,2.51
2019-02-27T04:26:19.793Z,2.53
2019-02-27T04:27:21.216Z,2.48
2019-02-27T04:28:19.787Z,2.51
2019-02-27T04:29:19.750Z,2.51
2019-02-27T04:30:19.732Z,2.48
2019-02-27T04:31:19.721Z,2.51
2019-02-27T04:32:19.716Z,2.48
2019-02-27T04:33:23.179Z,2.50
2019-02-27T04:34:19.882Z,2.51
2019-02-27T04:35:19.674Z,2.55
2019-02-27T04:36:19.667Z,2.48
2019-02-27T04:37:20.334Z,2.40
2019-02-27T04:38:19.642Z,2.47
2019-02-27T04:39:19.638Z,2.43
2019-02-27T04:40:19.651Z,2.40
2019-02-27T04:41:19.609Z,2.35
2019-02-27T04:42:19.618Z,2.42
2019-02-27T04:43:19.592Z,2.39
2019-02-27T04:44:19.581Z,2.30
2019-02-27T04:45:19.585Z,2.33
2019-02-27T04:46:21.561Z,2.35
2019-02-27T04:47:19.558Z,2.35
2019-02-27T04:48:19.538Z,2.37
2019-02-27T04:49:19.543Z,2.36
2019-02-27T04:50:19.515Z,2.35
2019-02-27T04:51:19.502Z,2.37
2019-02-27T04:52:21.986Z,2.33
2019-02-27T04:53:19.480Z,2.30
2019-02-27T04:54:19.474Z,2.30
2019-02-27T04:55:19.465Z,2.36
2019-02-27T04:56:23.123Z,2.37
2019-02-27T04:57:19.444Z,2.32
2019-02-27T04:58:19.457Z,2.37
2019-02-27T04:59:19.423Z,2.32
2019-02-27T05:00:19.431Z,2.37
2019-02-27T05:01:19.407Z,2.40
2019-02-27T05:02:19.384Z,2.39
2019-02-27T05:03:19.374Z,2.37
2019-02-27T05:04:19.549Z,2.42
2019-02-27T05:05:19.357Z,2.39
2019-02-27T05:06:19.338Z,2.51
2019-02-27T05:07:20.350Z,2.35
2019-02-27T05:08:19.327Z,2.39
2019-02-27T05:09:19.320Z,2.45
2019-02-27T05:10:19.354Z,2.53
2019-02-27T05:11:19.313Z,2.53
2019-02-27T05:12:19.277Z,2.57
2019-02-27T05:13:20.859Z,2.51
2019-02-27T05:14:19.270Z,2.58
2019-02-27T05:15:19.261Z,2.51
2019-02-27T05:16:19.263Z,2.53
2019-02-27T05:17:21.507Z,2.37
2019-02-27T05:18:19.218Z,2.50
2019-02-27T05:19:19.195Z,2.42
2019-02-27T05:20:19.202Z,2.50
2019-02-27T05:21:19.801Z,2.37
2019-02-27T05:22:19.219Z,2.42
2019-02-27T05:23:19.160Z,2.35
2019-02-27T05:24:19.147Z,2.42
2019-02-27T05:25:19.138Z,2.40
2019-02-27T05:26:19.141Z,2.36
2019-02-27T05:27:19.114Z,2.36
2019-02-27T05:28:19.398Z,2.32
2019-02-27T05:29:19.092Z,2.36
2019-02-27T05:30:19.088Z,2.35
2019-02-27T05:31:19.194Z,2.35
2019-02-27T05:32:19.076Z,2.24
2019-02-27T05:33:19.053Z,2.21
2019-02-27T05:34:19.076Z,2.19
2019-02-27T05:35:23.572Z,2.19
2019-02-27T05:36:20.036Z,2.10
2019-02-27T05:37:19.020Z,2.11
2019-02-27T05:38:18.992Z,2.06
2019-02-27T05:39:18.979Z,2.14
2019-02-27T05:40:19.037Z,2.06
2019-02-27T05:41:18.965Z,2.01
2019-02-27T05:42:19.011Z,2.00
2019-02-27T05:43:18.954Z,1.93
2019-02-27T05:44:21.206Z,1.97
2019-02-27T05:45:18.980Z,1.91
2019-02-27T05:46:18.943Z,1.97
2019-02-27T05:47:18.913Z,1.85
2019-02-27T05:48:20.031Z,1.82
2019-02-27T05:49:18.897Z,1.82
2019-02-27T05:50:18.866Z,1.81
2019-02-27T05:51:18.872Z,1.78
2019-02-27T05:52:18.906Z,1.75
2019-02-27T05:53:22.154Z,1.75
2019-02-27T05:54:18.823Z,1.74
2019-02-27T05:55:18.812Z,1.81
2019-02-27T05:56:18.798Z,1.75
2019-02-27T05:57:22.930Z,1.77
2019-02-27T05:58:22.849Z,1.63
2019-02-27T05:59:18.773Z,1.71
2019-02-27T06:00:18.768Z,1.71
2019-02-27T06:01:18.754Z,1.69
2019-02-27T06:02:18.736Z,1.67
2019-02-27T06:03:19.051Z,1.60
2019-02-27T06:04:18.771Z,1.69
2019-02-27T06:05:18.711Z,1.67
2019-02-27T06:06:18.701Z,1.63
2019-02-27T06:07:19.568Z,1.73
2019-02-27T06:08:18.704Z,1.66
2019-02-27T06:09:18.662Z,1.74
2019-02-27T06:10:20.101Z,1.66
2019-02-27T06:11:18.643Z,1.64
2019-02-27T06:12:18.626Z,1.84
2019-02-27T06:13:18.627Z,1.75
2019-02-27T06:14:21.152Z,1.75
2019-02-27T06:15:18.598Z,1.73
2019-02-27T06:16:18.768Z,1.80
2019-02-27T06:17:18.631Z,1.78
2019-02-27T06:18:22.442Z,1.75
2019-02-27T06:19:18.564Z,1.82
2019-02-27T06:20:18.542Z,1.81
2019-02-27T06:21:18.528Z,1.71
2019-02-27T06:22:18.571Z,1.74
2019-02-27T06:23:18.509Z,1.74
2019-02-27T06:24:18.514Z,1.75
2019-02-27T06:25:22.296Z,1.77
2019-02-27T06:26:19.482Z,1.75
2019-02-27T06:27:18.470Z,1.73
2019-02-27T06:28:19.336Z,1.91
2019-02-27T06:29:18.449Z,1.80
2019-02-27T06:30:18.430Z,1.80
2019-02-27T06:31:18.425Z,1.95
2019-02-27T06:32:18.420Z,2.01
2019-02-27T06:33:18.407Z,1.99
2019-02-27T06:34:18.518Z,2.06
2019-02-27T06:35:18.440Z,1.95
2019-02-27T06:36:18.379Z,2.01
2019-02-27T06:37:18.358Z,2.01
2019-02-27T06:38:18.359Z,1.95
2019-02-27T06:39:18.351Z,1.87
2019-02-27T06:40:18.571Z,1.99
2019-02-27T06:41:18.360Z,1.80
2019-02-27T06:42:18.400Z,1.81
2019-02-27T06:43:18.296Z,1.95
2019-02-27T06:44:19.121Z,1.97
2019-02-27T06:45:18.273Z,1.97
2019-02-27T06:46:20.016Z,1.95
2019-02-27T06:47:18.256Z,1.91
2019-02-27T06:48:18.237Z,1.97
2019-02-27T06:49:18.417Z,1.95
2019-02-27T06:50:18.214Z,1.95
2019-02-27T06:51:18.208Z,2.03
2019-02-27T06:52:18.240Z,1.97
2019-02-27T06:53:18.201Z,2.01
2019-02-27T06:54:18.951Z,2.06
2019-02-27T06:55:18.231Z,1.99
2019-02-27T06:56:18.160Z,2.00
2019-02-27T06:57:18.142Z,2.04
2019-02-27T06:58:18.187Z,2.07
2019-02-27T06:59:18.312Z,2.14
2019-02-27T07:00:18.157Z,2.19
2019-02-27T07:01:18.128Z,2.28
2019-02-27T07:02:19.080Z,2.30
2019-02-27T07:03:18.098Z,2.45
2019-02-27T07:04:18.130Z,2.55
2019-02-27T07:05:18.077Z,2.61
2019-02-27T07:06:21.276Z,2.71
2019-02-27T07:07:18.043Z,2.76
2019-02-27T07:08:18.036Z,2.81
2019-02-27T07:09:18.018Z,2.89
2019-02-27T07:10:19.989Z,2.96
2019-02-27T07:11:18.025Z,3.07
2019-02-27T07:12:21.679Z,3.12
2019-02-27T07:13:17.965Z,3.14
2019-02-27T07:14:17.956Z,3.23
2019-02-27T07:15:17.944Z,3.27
2019-02-27T07:16:20.458Z,3.36
2019-02-27T07:17:17.919Z,3.45
2019-02-27T07:18:17.915Z,3.64
2019-02-27T07:19:17.915Z,3.64
2019-02-27T07:20:17.901Z,3.60
2019-02-27T07:21:17.882Z,3.70
2019-02-27T07:22:17.932Z,3.76
2019-02-27T07:23:22.826Z,3.81
2019-02-27T07:24:18.849Z,3.84
2019-02-27T07:25:17.868Z,3.84
2019-02-27T07:26:17.936Z,3.82
2019-02-27T07:27:17.848Z,3.82
2019-02-27T07:28:17.878Z,3.82
2019-02-27T07:29:21.744Z,3.87
2019-02-27T07:30:18.779Z,3.82
2019-02-27T07:31:18.509Z,3.81
2019-02-27T07:32:17.759Z,3.88
2019-02-27T07:33:17.749Z,3.87
2019-02-27T07:34:17.813Z,3.90
2019-02-27T07:35:17.723Z,3.92
2019-02-27T07:36:17.750Z,3.96
2019-02-27T07:37:17.700Z,3.96
2019-02-27T07:38:21.430Z,3.90
2019-02-27T07:39:17.699Z,3.94
2019-02-27T07:40:17.702Z,3.94
2019-02-27T07:41:20.264Z,4.03
2019-02-27T07:42:17.653Z,4.05
2019-02-27T07:43:17.639Z,4.05
2019-02-27T07:44:17.623Z,4.05
2019-02-27T07:45:17.663Z,4.17
2019-02-27T07:46:22.200Z,4.23
2019-02-27T07:47:18.620Z,4.24
2019-02-27T07:48:17.581Z,4.38
2019-02-27T07:49:17.620Z,4.36
2019-02-27T07:50:17.574Z,4.38
2019-02-27T07:51:17.555Z,4.45
2019-02-27T07:52:17.832Z,4.56
2019-02-27T07:53:18.299Z,4.64
2019-02-27T07:54:17.536Z,4.75
2019-02-27T07:55:22.020Z,4.83
2019-02-27T07:56:18.596Z,4.97
2019-02-27T07:57:17.509Z,4.96
2019-02-27T07:58:17.789Z,5.06
2019-02-27T07:59:18.585Z,5.14
2019-02-27T08:00:17.458Z,5.06
2019-02-27T08:01:17.495Z,5.18
2019-02-27T08:02:17.434Z,5.29
2019-02-27T08:03:17.419Z,5.30
2019-02-27T08:04:19.610Z,5.37
2019-02-27T08:05:17.396Z,5.39
2019-02-27T08:06:17.428Z,5.51
2019-02-27T08:07:17.380Z,5.57
2019-02-27T08:08:17.435Z,5.66
2019-02-27T08:09:17.350Z,5.73
2019-02-27T08:10:17.395Z,5.76
2019-02-27T08:11:17.326Z,5.88
2019-02-27T08:12:17.509Z,6.13
2019-02-27T08:13:17.307Z,6.18
2019-02-27T08:14:17.349Z,6.28
2019-02-27T08:15:17.281Z,6.32
2019-02-27T08:16:17.443Z,6.50
2019-02-27T08:17:18.027Z,6.67
2019-02-27T08:18:20.497Z,6.74
2019-02-27T08:19:18.236Z,6.73
2019-02-27T08:20:20.180Z,6.86
2019-02-27T08:21:17.217Z,7.00
2019-02-27T08:22:17.250Z,7.00
2019-02-27T08:23:17.192Z,7.15
2019-02-27T08:24:17.182Z,7.19
2019-02-27T08:25:17.173Z,7.22
2019-02-27T08:26:18.473Z,7.37
2019-02-27T08:27:17.184Z,7.44
2019-02-27T08:28:17.176Z,7.57
2019-02-27T08:29:17.131Z,7.62
2019-02-27T08:30:17.118Z,7.74
2019-02-27T08:31:17.109Z,7.91
2019-02-27T08:32:17.154Z,7.88
2019-02-27T08:33:17.085Z,7.95
2019-02-27T08:34:17.126Z,8.04
2019-02-27T08:35:17.073Z,8.16
2019-02-27T08:36:17.053Z,8.16
2019-02-27T08:37:17.044Z,8.28
2019-02-27T08:38:17.059Z,8.28
2019-02-27T08:39:17.017Z,8.44
2019-02-27T08:40:17.042Z,8.57
2019-02-27T08:41:17.005Z,8.56
2019-02-27T08:42:16.986Z,8.57
2019-02-27T08:43:16.976Z,8.68
2019-02-27T08:44:17.000Z,8.72
2019-02-27T08:45:20.000Z,8.88
2019-02-27T08:46:17.136Z,8.89
2019-02-27T08:47:17.034Z,8.98
2019-02-27T08:48:18.083Z,9.04
2019-02-27T08:49:16.909Z,9.03
2019-02-27T08:50:16.937Z,9.15
2019-02-27T08:51:16.887Z,9.04
2019-02-27T08:52:16.922Z,9.08
2019-02-27T08:53:16.867Z,9.15
2019-02-27T08:54:16.910Z,9.22
2019-02-27T08:55:21.818Z,9.32
2019-02-27T08:56:17.886Z,9.41
2019-02-27T08:57:16.821Z,9.41
2019-02-27T08:58:16.841Z,9.54
2019-02-27T08:59:16.796Z,9.60
2019-02-27T09:00:16.792Z,9.72
2019-02-27T09:01:19.086Z,9.78
2019-02-27T09:02:16.776Z,9.91
2019-02-27T09:03:20.395Z,10.12
2019-02-27T09:04:16.777Z,10.05
2019-02-27T09:05:19.846Z,10.21
2019-02-27T09:06:18.623Z,10.35
2019-02-27T09:07:16.714Z,10.42
2019-02-27T09:08:16.715Z,10.39
2019-02-27T09:09:17.993Z,10.38
2019-02-27T09:10:16.716Z,10.54
2019-02-27T09:11:16.663Z,10.62
2019-02-27T09:12:16.653Z,10.54
2019-02-27T09:13:16.643Z,10.65
2019-02-27T09:14:16.669Z,10.73
2019-02-27T09:15:16.618Z,10.67
2019-02-27T09:16:16.641Z,10.73
2019-02-27T09:17:16.605Z,10.86
2019-02-27T09:18:16.590Z,10.95
2019-02-27T09:19:16.580Z,11.05
2019-02-27T09:20:19.552Z,11.12
2019-02-27T09:21:17.246Z,11.27
2019-02-27T09:22:16.737Z,11.25
2019-02-27T09:23:18.296Z,11.33
2019-02-27T09:24:16.524Z,11.43
2019-02-27T09:25:16.512Z,11.34
2019-02-27T09:26:16.527Z,11.41
2019-02-27T09:27:16.490Z,11.38
2019-02-27T09:28:16.512Z,11.41
2019-02-27T09:29:18.738Z,11.54
2019-02-27T09:30:16.463Z,11.52
2019-02-27T09:31:16.444Z,11.62
2019-02-27T09:32:16.477Z,11.62
2019-02-27T09:33:17.028Z,11.64
2019-02-27T09:34:16.533Z,11.69
2019-02-27T09:35:16.401Z,11.74
2019-02-27T09:36:16.384Z,11.89
2019-02-27T09:37:17.750Z,11.95
2019-02-27T09:38:16.403Z,12.11
2019-02-27T09:39:16.349Z,12.10
2019-02-27T09:40:16.379Z,12.14
2019-02-27T09:41:16.330Z,12.28
2019-02-27T09:42:18.994Z,12.33
2019-02-27T09:43:16.326Z,12.47
2019-02-27T09:44:16.327Z,12.41
2019-02-27T09:45:16.287Z,12.50
2019-02-27T09:46:19.272Z,12.58
2019-02-27T09:47:16.268Z,12.62
2019-02-27T09:48:16.254Z,12.68
2019-02-27T09:49:16.239Z,12.72
2019-02-27T09:50:16.249Z,12.87
2019-02-27T09:51:16.219Z,12.88
2019-02-27T09:52:16.240Z,12.96
2019-02-27T09:53:16.195Z,12.96
2019-02-27T09:54:16.185Z,13.02
2019-02-27T09:55:20.170Z,13.14
2019-02-27T09:56:16.195Z,13.21
2019-02-27T09:57:16.164Z,13.16
2019-02-27T09:58:16.194Z,13.17
2019-02-27T09:59:16.750Z,13.19
2019-02-27T10:00:16.120Z,13.24
2019-02-27T10:01:16.111Z,13.36
2019-02-27T10:02:16.170Z,13.42
2019-02-27T10:03:20.193Z,13.47
2019-02-27T10:04:17.162Z,13.54
2019-02-27T10:05:16.068Z,13.54
2019-02-27T10:06:16.084Z,13.60
2019-02-27T10:07:17.087Z,13.53
2019-02-27T10:08:16.095Z,13.63
2019-02-27T10:09:16.026Z,13.61
2019-02-27T10:10:16.056Z,13.60
2019-02-27T10:11:18.806Z,13.73
2019-02-27T10:12:15.989Z,13.75
2019-02-27T10:13:15.978Z,13.80
2019-02-27T10:14:16.410Z,13.78
2019-02-27T10:15:15.960Z,13.96
2019-02-27T10:16:16.001Z,14.09
2019-02-27T10:17:15.960Z,14.09
2019-02-27T10:18:18.958Z,14.27
2019-02-27T10:19:17.203Z,14.23
2019-02-27T10:20:15.943Z,14.28
2019-02-27T10:21:15.892Z,14.33
2019-02-27T10:22:17.843Z,14.34
2019-02-27T10:23:15.865Z,14.46
2019-02-27T10:24:15.854Z,14.30
2019-02-27T10:25:15.850Z,14.48
2019-02-27T10:26:16.547Z,14.55
2019-02-27T10:27:15.883Z,14.63
2019-02-27T10:28:15.842Z,14.70
2019-02-27T10:29:15.802Z,14.69
2019-02-27T10:30:16.723Z,14.85
2019-02-27T10:31:15.774Z,14.86
2019-02-27T10:32:15.763Z,14.86
2019-02-27T10:33:15.800Z,15.03
2019-02-27T10:34:17.703Z,14.99
2019-02-27T10:35:15.729Z,15.04
2019-02-27T10:36:16.351Z,15.10
2019-02-27T10:37:18.731Z,15.23
2019-02-27T10:38:15.695Z,15.19
2019-02-27T10:39:15.728Z,15.32
2019-02-27T10:40:15.722Z,15.27
2019-02-27T10:41:15.661Z,15.27
2019-02-27T10:42:15.653Z,15.48
2019-02-27T10:43:15.677Z,15.45
2019-02-27T10:44:15.629Z,15.60
2019-02-27T10:45:15.645Z,15.63
2019-02-27T10:46:15.634Z,15.76
2019-02-27T10:47:15.592Z,15.77
2019-02-27T10:48:15.583Z,15.78
2019-02-27T10:49:15.571Z,15.85
2019-02-27T10:50:15.559Z,15.85
2019-02-27T10:51:15.590Z,15.88
2019-02-27T10:52:15.569Z,15.93
2019-02-27T10:53:15.529Z,16.06
2019-02-27T10:54:15.515Z,16.22
2019-02-27T10:55:15.506Z,16.18
2019-02-27T10:56:15.495Z,16.26
2019-02-27T10:57:15.544Z,16.34
2019-02-27T10:58:15.528Z,16.40
2019-02-27T10:59:15.485Z,16.42
2019-02-27T11:00:15.448Z,16.51
2019-02-27T11:01:15.445Z,16.47
2019-02-27T11:02:15.430Z,16.52
2019-02-27T11:03:15.417Z,16.57
2019-02-27T11:04:15.470Z,16.59
2019-02-27T11:05:17.801Z,16.70
2019-02-27T11:06:15.383Z,16.72
2019-02-27T11:07:15.778Z,16.84
2019-02-27T11:08:15.369Z,16.91
2019-02-27T11:09:15.345Z,16.90
2019-02-27T11:10:15.486Z,16.95
2019-02-27T11:11:16.268Z,16.95
2019-02-27T11:12:15.314Z,17.02
2019-02-27T11:13:15.315Z,17.06
2019-02-27T11:14:15.336Z,17.10
2019-02-27T11:15:15.282Z,17.19
2019-02-27T11:16:15.549Z,17.17
2019-02-27T11:17:15.256Z,17.24
2019-02-27T11:18:15.309Z,17.20
2019-02-27T11:19:16.625Z,17.27
2019-02-27T11:20:20.319Z,17.27
2019-02-27T11:21:16.251Z,17.28
2019-02-27T11:22:15.203Z,17.32
2019-02-27T11:23:15.195Z,17.37
2019-02-27T11:24:17.335Z,17.30
2019-02-27T11:25:15.177Z,17.24
2019-02-27T11:26:15.159Z,17.41
2019-02-27T11:27:16.793Z,17.32
2019-02-27T11:28:15.140Z,17.32
2019-02-27T11:29:15.129Z,17.52
2019-02-27T11:30:15.113Z,17.49
2019-02-27T11:31:15.608Z,17.49
2019-02-27T11:32:15.104Z,17.43
2019-02-27T11:33:25.122Z,17.50
2019-02-27T11:34:16.281Z,17.59
2019-02-27T11:35:15.058Z,17.52
2019-02-27T11:36:15.047Z,17.47
2019-02-27T11:37:16.502Z,17.47
2019-02-27T11:38:15.024Z,17.47
2019-02-27T11:39:15.051Z,17.65
2019-02-27T11:40:15.004Z,17.75
2019-02-27T11:41:15.898Z,17.71
2019-02-27T11:42:14.980Z,17.76
2019-02-27T11:43:15.009Z,17.84
2019-02-27T11:44:14.981Z,17.86
2019-02-27T11:45:14.990Z,17.86
2019-02-27T11:46:14.937Z,17.87
2019-02-27T11:47:14.926Z,17.87
2019-02-27T11:48:14.914Z,17.87
2019-02-27T11:49:14.906Z,18.08
2019-02-27T11:50:17.899Z,17.99
2019-02-27T11:51:17.515Z,18.09
2019-02-27T11:52:15.869Z,18.05
2019-02-27T11:53:14.857Z,18.06
2019-02-27T11:54:14.851Z,18.20
2019-02-27T11:55:15.522Z,18.20
2019-02-27T11:56:14.869Z,18.15
2019-02-27T11:57:14.846Z,18.24
2019-02-27T11:58:14.808Z,18.23
2019-02-27T11:59:14.800Z,18.15
2019-02-27T12:00:14.783Z,18.17
2019-02-27T12:01:14.768Z,18.24
2019-02-27T12:02:14.785Z,18.41
2019-02-27T12:03:14.785Z,18.41
2019-02-27T12:04:19.297Z,18.56
2019-02-27T12:05:15.745Z,18.56
2019-02-27T12:06:14.714Z,18.66
2019-02-27T12:07:17.225Z,18.66
2019-02-27T12:08:14.732Z,18.68
2019-02-27T12:09:14.716Z,18.68
2019-02-27T12:10:14.668Z,18.66
2019-02-27T12:11:14.662Z,18.61
2019-02-27T12:12:14.644Z,18.64
2019-02-27T12:13:14.633Z,18.67
2019-02-27T12:14:14.674Z,18.76
2019-02-27T12:15:14.651Z,18.79
2019-02-27T12:16:15.236Z,18.88
2019-02-27T12:17:14.596Z,18.82
2019-02-27T12:18:14.587Z,18.91
2019-02-27T12:19:14.572Z,18.93
2019-02-27T12:20:18.077Z,19.01
2019-02-27T12:21:14.601Z,19.09
2019-02-27T12:22:14.598Z,19.12
2019-02-27T12:23:14.527Z,19.20
2019-02-27T12:24:16.324Z,19.23
2019-02-27T12:25:14.509Z,19.30
2019-02-27T12:26:14.506Z,19.45
2019-02-27T12:27:24.345Z,19.44
2019-02-27T12:28:18.112Z,19.64
2019-02-27T12:29:14.551Z,19.74
2019-02-27T12:30:14.477Z,19.93
2019-02-27T12:31:14.520Z,20.09
2019-02-27T12:32:14.425Z,20.26
2019-02-27T12:33:14.444Z,20.56
2019-02-27T12:34:14.406Z,20.80
2019-02-27T12:35:14.392Z,20.93
2019-02-27T12:36:16.107Z,21.20
2019-02-27T12:37:23.927Z,21.50
2019-02-27T12:38:15.394Z,21.66
2019-02-27T12:39:15.624Z,22.01
2019-02-27T12:40:14.332Z,22.16
2019-02-27T12:41:14.328Z,22.37
2019-02-27T12:42:14.320Z,22.62
2019-02-27T12:43:17.619Z,22.78
2019-02-27T12:44:14.347Z,22.91
2019-02-27T12:45:14.310Z,22.99
2019-02-27T12:46:14.267Z,23.31
2019-02-27T12:47:14.257Z,23.60
2019-02-27T12:48:14.253Z,23.94
2019-02-27T12:49:14.258Z,24.40
2019-02-27T12:50:14.272Z,24.63
2019-02-27T12:51:14.214Z,24.85
2019-02-27T12:52:14.251Z,25.06
2019-02-27T12:53:14.193Z,25.18
2019-02-27T12:54:14.181Z,25.34
2019-02-27T12:55:14.171Z,25.15
2019-02-27T12:56:14.196Z,25.27
2019-02-27T12:57:17.424Z,25.03
2019-02-27T12:58:14.185Z,24.99
2019-02-27T12:59:14.125Z,25.22
2019-02-27T13:00:14.122Z,25.16
2019-02-27T13:01:16.326Z,25.46
2019-02-27T13:02:14.143Z,25.34
2019-02-27T13:03:14.098Z,25.45
2019-02-27T13:04:16.670Z,25.55
2019-02-27T13:05:15.078Z,25.18
2019-02-27T13:06:14.114Z,25.06
2019-02-27T13:07:14.048Z,25.30
2019-02-27T13:08:16.349Z,25.63
2019-02-27T13:09:14.024Z,25.61
2019-02-27T13:10:14.012Z,25.59